Terminal Aerodrome Forecast
Issued by NWS

Home | Current Version | Previous Version | Text Only | Print | Product List | Glossary On
Versions: 1 2 3 4 5 6 7 8 9 10 11 12 13 14 15 16
000
FTUS44 KEPZ 041100
TAFDMN
TAF
KDMN 041133Z 0412/0512 27011KT P6SM SCT100
     FM041800 28012G22KT P6SM VCSH SCT050 BKN080 BKN140
     FM042300 28012G22KT P6SM SCT080
     FM050600 07015G25KT P6SM SCT060=

USA.gov is the U.S. government's official web portal to all federal, state and local government web resources and services.